Time;durP1;ratioP1;P1;durP2;ratioP2;P2;SDS_P1;SDS_P2;PMS_P1;PMS_P2;Temp;Humidity;BMP_temperature;BMP_pressure;BME280_temperature;BME280_humidity;BME280_pressure;Samples;Min_cycle;Max_cycle;Signal;HPM_P1;HPM_P2
2022/10/30 06:00:35;;;;;;;7.17;4.67;;;15.70;97.20;;;;;;1669674;29;20206;-68
2022/10/30 06:01:26;;;;;;;9.23;3.70;;;15.70;97.20;;;;;;1669053;29;20206;-68
2022/10/30 06:02:18;;;;;;;9.67;4.73;;;15.70;97.20;;;;;;1669636;29;20209;-68
2022/10/30 06:03:10;;;;;;;10.15;4.53;;;15.70;97.20;;;;;;1669389;29;20218;-68
2022/10/30 06:04:02;;;;;;;7.40;3.97;;;15.70;97.20;;;;;;1669628;29;20576;-68
2022/10/30 06:04:53;;;;;;;7.57;3.70;;;15.70;97.20;;;;;;1668741;29;20214;-70
2022/10/30 06:05:46;;;;;;;9.33;4.07;;;15.70;97.20;;;;;;1668632;29;20195;-71
2022/10/30 06:06:38;;;;;;;12.85;4.35;;;15.70;97.20;;;;;;1669127;29;20673;-70
2022/10/30 06:07:29;;;;;;;10.38;4.32;;;15.70;97.20;;;;;;1669355;29;20211;-70
2022/10/30 06:08:20;;;;;;;11.07;4.07;;;15.70;97.20;;;;;;1669384;29;20202;-70
2022/10/30 06:09:11;;;;;;;8.35;3.80;;;15.60;97.20;;;;;;1669570;29;20222;-70
2022/10/30 06:10:03;;;;;;;11.27;4.50;;;15.60;97.20;;;;;;1669565;29;20210;-70
2022/10/30 06:10:54;;;;;;;8.32;4.22;;;15.60;97.20;;;;;;1669499;29;20605;-70
2022/10/30 06:11:45;;;;;;;6.87;3.37;;;15.60;97.20;;;;;;1669550;29;20582;-70
2022/10/30 06:12:36;;;;;;;8.63;4.72;;;15.60;97.20;;;;;;1669562;29;20447;-70
2022/10/30 06:13:28;;;;;;;9.07;4.40;;;15.60;97.20;;;;;;1669535;29;20210;-70
2022/10/30 06:14:19;;;;;;;6.47;3.47;;;15.60;97.20;;;;;;1669194;29;20602;-70
2022/10/30 06:15:10;;;;;;;11.23;4.83;;;15.60;97.20;;;;;;1669605;29;20206;-70
2022/10/30 06:16:03;;;;;;;7.95;4.00;;;15.60;97.20;;;;;;1669567;29;20604;-70
2022/10/30 06:16:55;;;;;;;8.23;4.28;;;15.60;97.20;;;;;;1669387;29;20229;-70
2022/10/30 06:17:45;;;;;;;11.05;3.90;;;15.60;97.20;;;;;;1669496;29;20213;-70
2022/10/30 06:18:37;;;;;;;12.00;4.43;;;15.60;97.20;;;;;;1669388;29;20209;-69
2022/10/30 06:19:28;;;;;;;11.55;4.60;;;15.60;97.20;;;;;;1669548;29;20638;-70
2022/10/30 06:20:22;;;;;;;10.17;4.47;;;15.60;97.20;;;;;;1669480;29;20654;-70
2022/10/30 06:21:14;;;;;;;6.32;3.60;;;15.60;97.20;;;;;;1669515;29;20218;-70
2022/10/30 06:22:04;;;;;;;7.60;3.70;;;15.60;97.20;;;;;;1669507;29;20677;-69
2022/10/30 06:22:57;;;;;;;9.10;4.00;;;15.60;97.20;;;;;;1669592;29;20665;-70
2022/10/30 06:23:48;;;;;;;7.82;4.43;;;15.60;97.20;;;;;;1669506;29;20207;-70
2022/10/30 06:24:40;;;;;;;10.10;4.57;;;15.50;97.20;;;;;;1669214;29;20666;-69
2022/10/30 06:25:32;;;;;;;11.52;4.72;;;15.50;97.20;;;;;;1669495;29;20591;-70
2022/10/30 06:26:23;;;;;;;7.72;4.72;;;15.50;97.20;;;;;;1669235;29;20216;-70
2022/10/30 06:27:14;;;;;;;9.75;4.10;;;15.50;97.20;;;;;;1669418;29;20210;-70
2022/10/30 06:28:06;;;;;;;7.37;3.70;;;15.50;97.20;;;;;;1669413;29;20210;-70
2022/10/30 06:28:57;;;;;;;11.43;4.40;;;15.50;97.20;;;;;;1669549;29;21067;-69
2022/10/30 06:29:49;;;;;;;18.60;5.60;;;15.50;97.20;;;;;;1669470;29;20554;-70
2022/10/30 06:30:40;;;;;;;11.55;4.25;;;15.50;97.20;;;;;;1673082;29;20230;-70
2022/10/30 06:31:33;;;;;;;9.60;4.17;;;15.50;97.20;;;;;;1656915;29;20295;-69
2022/10/30 06:32:24;;;;;;;12.57;4.35;;;15.50;97.20;;;;;;1658298;29;20243;-68
2022/10/30 06:33:15;;;;;;;13.33;4.67;;;15.50;97.20;;;;;;1654672;29;20209;-68
2022/10/30 06:34:06;;;;;;;7.05;4.45;;;15.50;97.20;;;;;;1650400;29;20209;-69
2022/10/30 06:34:58;;;;;;;9.40;4.00;;;15.50;97.20;;;;;;1650753;29;20216;-68
2022/10/30 06:35:49;;;;;;;11.23;4.88;;;15.50;97.20;;;;;;1650631;30;20215;-69
2022/10/30 06:36:40;;;;;;;7.80;4.53;;;15.50;97.20;;;;;;1650393;30;20200;-68
2022/10/30 06:37:31;;;;;;;9.80;4.55;;;15.50;97.20;;;;;;1650542;30;20212;-68
2022/10/30 06:38:23;;;;;;;11.70;4.57;;;15.50;97.20;;;;;;1650651;30;20212;-68
2022/10/30 06:39:13;;;;;;;8.13;4.32;;;15.60;97.20;;;;;;1650696;30;20213;-68
2022/10/30 06:40:07;;;;;;;10.80;4.30;;;15.60;97.20;;;;;;1650597;30;20204;-71
2022/10/30 06:40:57;;;;;;;9.25;4.57;;;15.60;97.20;;;;;;1650592;29;20240;-70
2022/10/30 06:41:50;;;;;;;9.87;5.60;;;15.60;97.20;;;;;;1650647;30;20691;-69
2022/10/30 06:42:44;;;;;;;9.93;5.10;;;15.60;97.20;;;;;;1650625;30;20269;-68
2022/10/30 06:43:36;;;;;;;10.75;4.30;;;15.60;97.20;;;;;;1650608;30;20204;-68
2022/10/30 06:44:27;;;;;;;8.80;4.70;;;15.60;97.20;;;;;;1650204;30;20580;-68
2022/10/30 06:45:20;;;;;;;8.07;4.70;;;15.60;97.20;;;;;;1650605;29;20205;-68
2022/10/30 06:46:11;;;;;;;11.43;5.22;;;15.60;97.20;;;;;;1650354;30;20220;-68
2022/10/30 06:47:04;;;;;;;9.50;4.77;;;15.60;97.20;;;;;;1650537;30;20212;-68
2022/10/30 06:47:55;;;;;;;11.20;4.78;;;15.60;97.20;;;;;;1650538;29;20219;-68
2022/10/30 06:48:47;;;;;;;8.63;4.90;;;15.70;97.20;;;;;;1650609;30;20215;-68
2022/10/30 06:49:37;;;;;;;14.63;5.15;;;15.70;97.20;;;;;;1650609;30;20976;-68
2022/10/30 06:50:29;;;;;;;8.53;5.10;;;15.70;97.20;;;;;;1650459;30;20667;-68
2022/10/30 06:51:20;;;;;;;9.98;5.30;;;15.70;97.20;;;;;;1650577;30;20215;-68
2022/10/30 06:52:12;;;;;;;8.00;4.30;;;15.70;97.20;;;;;;1650470;30;20219;-67
2022/10/30 06:53:02;;;;;;;6.38;4.50;;;15.70;97.20;;;;;;1650513;29;20216;-68
2022/10/30 06:53:54;;;;;;;8.87;4.67;;;15.70;97.20;;;;;;1650619;30;20212;-68
2022/10/30 06:54:46;;;;;;;8.75;4.30;;;15.70;97.20;;;;;;1650155;30;20220;-69
2022/10/30 06:55:38;;;;;;;6.95;4.10;;;15.70;97.20;;;;;;1650585;29;20221;-69
2022/10/30 06:56:28;;;;;;;8.77;4.75;;;15.70;97.20;;;;;;1650224;30;20220;-68
2022/10/30 06:57:20;;;;;;;8.83;4.43;;;15.70;97.20;;;;;;1650474;30;20215;-69
2022/10/30 06:58:11;;;;;;;8.95;4.75;;;15.80;97.20;;;;;;1650510;30;20208;-69
2022/10/30 06:59:02;;;;;;;9.83;3.80;;;15.70;97.20;;;;;;1650587;29;20236;-70
2022/10/30 06:59:53;;;;;;;9.50;4.70;;;15.80;97.20;;;;;;1650527;30;20213;-69
2022/10/30 07:00:45;;;;;;;8.80;4.57;;;15.80;97.20;;;;;;1650478;30;20228;-69
2022/10/30 07:01:36;;;;;;;11.45;4.88;;;15.80;97.20;;;;;;1650500;30;20208;-69
2022/10/30 07:02:29;;;;;;;13.53;4.40;;;15.80;97.20;;;;;;1650493;30;20201;-68
2022/10/30 07:03:20;;;;;;;9.20;3.80;;;15.80;97.20;;;;;;1650505;30;20225;-68
2022/10/30 07:04:11;;;;;;;11.07;4.68;;;15.80;97.20;;;;;;1650180;30;20273;-68
2022/10/30 07:05:02;;;;;;;10.93;4.68;;;15.90;97.20;;;;;;1650542;30;20216;-68
2022/10/30 07:05:54;;;;;;;11.83;4.20;;;15.90;97.20;;;;;;1650489;30;20437;-68
2022/10/30 07:06:45;;;;;;;9.18;4.70;;;15.90;97.20;;;;;;1650040;29;20991;-68
2022/10/30 07:07:36;;;;;;;11.03;5.17;;;15.90;97.20;;;;;;1649625;30;20702;-68
2022/10/30 07:08:27;;;;;;;12.68;5.00;;;16.00;97.20;;;;;;1650445;30;20588;-69
2022/10/30 07:09:19;;;;;;;7.50;4.40;;;16.00;97.20;;;;;;1650506;30;20227;-69
2022/10/30 07:10:10;;;;;;;9.45;5.35;;;16.00;97.20;;;;;;1650441;30;20212;-69
2022/10/30 07:11:01;;;;;;;15.03;5.17;;;16.00;97.20;;;;;;1650432;30;20235;-69
2022/10/30 07:11:52;;;;;;;10.45;4.70;;;16.10;97.20;;;;;;1650480;30;20301;-68
2022/10/30 07:12:51;;;;;;;13.50;4.60;;;16.10;97.20;;;;;;1650369;30;20327;-69
2022/10/30 07:13:42;;;;;;;6.80;4.35;;;16.10;97.20;;;;;;1650499;30;20225;-69
2022/10/30 07:14:34;;;;;;;9.20;4.60;;;16.10;97.20;;;;;;1650232;29;20201;-69
2022/10/30 07:15:25;;;;;;;10.77;5.05;;;16.10;97.20;;;;;;1650403;30;20204;-68
2022/10/30 07:16:17;;;;;;;7.07;4.38;;;16.10;97.20;;;;;;1650181;30;20208;-68
2022/10/30 07:17:08;;;;;;;11.00;4.50;;;16.10;97.20;;;;;;1650350;30;20598;-68
2022/10/30 07:18:02;;;;;;;9.02;4.32;;;16.20;97.20;;;;;;1650311;30;20589;-69
2022/10/30 07:18:55;;;;;;;9.35;4.03;;;16.20;97.20;;;;;;1650433;30;20220;-69
2022/10/30 07:19:46;;;;;;;12.45;5.22;;;16.20;97.20;;;;;;1650383;30;20208;-69
2022/10/30 07:20:37;;;;;;;11.40;5.72;;;16.20;97.20;;;;;;1650386;30;20229;-68
2022/10/30 07:21:29;;;;;;;10.27;5.03;;;16.20;97.20;;;;;;1650436;30;20210;-69
2022/10/30 07:22:20;;;;;;;15.48;5.65;;;16.20;97.20;;;;;;1650376;30;20213;-68
2022/10/30 07:23:11;;;;;;;9.23;4.43;;;16.20;97.20;;;;;;1650428;30;20292;-69
2022/10/30 07:24:02;;;;;;;6.95;4.55;;;16.20;97.20;;;;;;1650360;30;20213;-69
2022/10/30 07:24:54;;;;;;;10.93;5.40;;;16.20;97.20;;;;;;1650040;29;20250;-69
2022/10/30 07:25:45;;;;;;;10.02;5.25;;;16.20;97.20;;;;;;1650374;30;20212;-69
2022/10/30 07:26:38;;;;;;;12.20;5.00;;;16.10;97.20;;;;;;1650232;30;20220;-69
2022/10/30 07:27:28;;;;;;;8.10;4.47;;;16.10;97.20;;;;;;1650526;30;20220;-68
2022/10/30 07:28:20;;;;;;;8.43;5.07;;;16.10;97.20;;;;;;1650384;30;20284;-68
2022/10/30 07:29:11;;;;;;;10.60;4.47;;;16.20;97.20;;;;;;1650395;30;20240;-69
2022/10/30 07:30:03;;;;;;;8.03;4.87;;;16.20;97.20;;;;;;1650379;30;20213;-69
2022/10/30 07:30:54;;;;;;;9.68;4.60;;;16.20;97.20;;;;;;1653309;29;20233;-69
2022/10/30 07:31:46;;;;;;;11.53;4.80;;;16.20;97.20;;;;;;1662802;29;20215;-69
2022/10/30 07:32:38;;;;;;;8.90;4.93;;;16.30;97.20;;;;;;1662731;29;20621;-69
2022/10/30 07:33:31;;;;;;;7.93;4.53;;;16.30;97.20;;;;;;1662712;29;20302;-69
2022/10/30 07:34:22;;;;;;;11.13;4.28;;;16.30;97.20;;;;;;1662491;29;20678;-68
2022/10/30 07:35:14;;;;;;;6.17;4.03;;;16.30;97.20;;;;;;1662688;29;20576;-69
2022/10/30 07:36:06;;;;;;;8.27;5.28;;;16.30;97.20;;;;;;1662762;29;20257;-69
2022/10/30 07:36:58;;;;;;;10.65;5.05;;;16.40;97.20;;;;;;1662509;29;20260;-69
2022/10/30 07:37:49;;;;;;;9.70;4.68;;;16.40;97.20;;;;;;1662805;29;20207;-68
2022/10/30 07:38:40;;;;;;;8.50;4.57;;;16.40;97.20;;;;;;1662712;29;20210;-69
2022/10/30 07:39:31;;;;;;;5.82;4.03;;;16.40;97.20;;;;;;1662800;29;20210;-69
2022/10/30 07:40:23;;;;;;;7.00;4.67;;;16.40;97.20;;;;;;1662759;29;20207;-69
2022/10/30 07:41:14;;;;;;;14.18;5.03;;;16.50;97.20;;;;;;1662717;29;20211;-69
2022/10/30 07:42:06;;;;;;;9.57;4.70;;;16.50;97.20;;;;;;1662700;29;20214;-69
2022/10/30 07:42:57;;;;;;;13.18;4.90;;;16.50;97.20;;;;;;1662755;29;20214;-68
2022/10/30 07:43:49;;;;;;;9.60;4.10;;;16.50;97.20;;;;;;1662810;29;20211;-69
2022/10/30 07:44:40;;;;;;;7.00;3.90;;;16.50;97.20;;;;;;1662419;29;20199;-69
2022/10/30 07:45:32;;;;;;;7.10;4.40;;;16.60;97.20;;;;;;1662700;29;20655;-69
2022/10/30 07:46:23;;;;;;;6.80;4.03;;;16.60;97.20;;;;;;1662402;29;20203;-69
2022/10/30 07:47:15;;;;;;;9.00;4.60;;;16.60;97.20;;;;;;1662573;29;20215;-68
2022/10/30 07:48:05;;;;;;;12.73;4.75;;;16.70;97.20;;;;;;1662640;29;20218;-68
2022/10/30 07:48:58;;;;;;;10.03;4.90;;;16.70;97.20;;;;;;1662660;29;20207;-69
2022/10/30 07:49:49;;;;;;;9.80;4.80;;;16.70;97.20;;;;;;1662685;29;20605;-69
2022/10/30 07:50:41;;;;;;;6.93;4.00;;;16.80;97.20;;;;;;1662676;29;20612;-69
2022/10/30 07:51:32;;;;;;;13.43;5.15;;;16.80;97.20;;;;;;1662644;29;20452;-69
2022/10/30 07:52:24;;;;;;;9.70;4.80;;;16.90;97.20;;;;;;1662622;29;20215;-68
2022/10/30 07:53:15;;;;;;;11.27;4.80;;;16.90;97.20;;;;;;1662671;29;20214;-69
2022/10/30 07:54:06;;;;;;;9.03;4.63;;;17.00;97.20;;;;;;1662625;29;20209;-69
2022/10/30 07:54:57;;;;;;;7.10;4.13;;;17.00;97.20;;;;;;1662437;29;20212;-69
2022/10/30 07:55:49;;;;;;;8.90;4.83;;;17.00;97.20;;;;;;1662318;29;20210;-69
2022/10/30 07:56:39;;;;;;;11.25;4.75;;;17.10;97.20;;;;;;1662127;29;20210;-69
2022/10/30 07:57:34;;;;;;;9.53;4.90;;;17.10;97.20;;;;;;1662602;29;20203;-68
2022/10/30 07:58:25;;;;;;;9.48;4.10;;;17.20;97.20;;;;;;1662605;29;20215;-68
2022/10/30 07:59:17;;;;;;;11.13;4.63;;;17.20;97.20;;;;;;1662589;29;20199;-69
2022/10/30 08:00:10;;;;;;;9.27;4.55;;;17.20;97.20;;;;;;1662642;29;20214;-69
2022/10/30 08:01:02;;;;;;;9.38;4.50;;;17.30;97.20;;;;;;1662526;29;20646;-69
2022/10/30 08:01:53;;;;;;;11.80;4.45;;;17.30;97.20;;;;;;1662627;29;20214;-69
2022/10/30 08:02:48;;;;;;;10.73;4.70;;;17.40;97.20;;;;;;1662601;29;20222;-69
2022/10/30 08:03:39;;;;;;;9.57;4.07;;;17.50;97.20;;;;;;1662232;29;20663;-69
2022/10/30 08:04:32;;;;;;;8.43;4.30;;;17.50;97.20;;;;;;1662572;29;20696;-69
2022/10/30 08:05:23;;;;;;;11.68;4.60;;;17.60;97.20;;;;;;1662611;29;20258;-69
2022/10/30 08:06:14;;;;;;;9.60;4.60;;;17.70;97.20;;;;;;1662354;29;20215;-69
2022/10/30 08:07:05;;;;;;;8.13;3.88;;;17.80;97.20;;;;;;1662505;29;20211;-69
2022/10/30 08:07:57;;;;;;;11.83;4.50;;;17.90;97.20;;;;;;1662506;29;20219;-69
2022/10/30 08:08:48;;;;;;;9.90;3.90;;;17.90;97.20;;;;;;1662555;29;20211;-69
2022/10/30 08:09:39;;;;;;;6.23;3.87;;;18.00;97.20;;;;;;1662590;29;20213;-69
2022/10/30 08:10:30;;;;;;;11.57;5.10;;;18.10;97.20;;;;;;1662520;29;20274;-69
2022/10/30 08:11:22;;;;;;;8.13;3.83;;;18.20;97.20;;;;;;1662616;29;20199;-69
2022/10/30 08:12:12;;;;;;;8.13;3.50;;;18.20;97.20;;;;;;1662544;29;20697;-69
2022/10/30 08:13:04;;;;;;;10.23;4.27;;;18.30;97.20;;;;;;1662380;29;20736;-69
2022/10/30 08:13:55;;;;;;;10.80;4.10;;;18.40;97.20;;;;;;1662180;29;20597;-69
2022/10/30 08:14:48;;;;;;;12.37;4.67;;;18.50;97.20;;;;;;1662617;29;20559;-69
2022/10/30 08:15:38;;;;;;;7.22;3.85;;;18.50;97.20;;;;;;1662281;29;20499;-69
2022/10/30 08:16:30;;;;;;;7.50;3.90;;;18.60;97.20;;;;;;1662273;29;20654;-69
2022/10/30 08:17:21;;;;;;;6.03;3.45;;;18.70;97.20;;;;;;1662540;29;20693;-69
2022/10/30 08:18:12;;;;;;;7.60;3.90;;;18.80;97.20;;;;;;1662498;29;20576;-69
2022/10/30 08:19:03;;;;;;;9.15;4.35;;;18.80;97.20;;;;;;1662348;29;20211;-69
2022/10/30 08:19:56;;;;;;;10.27;4.50;;;18.90;97.20;;;;;;1662637;29;20211;-69
2022/10/30 08:20:49;;;;;;;9.35;5.18;;;19.00;97.20;;;;;;1662478;29;20271;-69
2022/10/30 08:21:40;;;;;;;8.23;3.70;;;19.00;97.20;;;;;;1662525;29;20259;-69
2022/10/30 08:22:31;;;;;;;9.30;5.70;;;19.10;97.20;;;;;;1662513;29;20263;-69
2022/10/30 08:23:23;;;;;;;8.63;4.20;;;19.10;97.20;;;;;;1662199;29;20203;-69
2022/10/30 08:24:13;;;;;;;12.13;5.05;;;19.20;97.20;;;;;;1662499;29;20217;-69
2022/10/30 08:25:06;;;;;;;7.43;4.43;;;19.20;97.20;;;;;;1662542;29;20203;-68
2022/10/30 08:25:59;;;;;;;6.95;4.18;;;19.20;97.20;;;;;;1662509;29;20218;-68
2022/10/30 08:26:51;;;;;;;9.73;4.72;;;19.20;97.20;;;;;;1662211;29;20259;-69
2022/10/30 08:27:50;;;;;;;8.95;5.57;;;19.30;97.20;;;;;;1662530;29;20207;-69
2022/10/30 08:28:42;;;;;;;13.05;5.15;;;19.30;97.20;;;;;;1662543;29;20203;-68
2022/10/30 08:29:33;;;;;;;10.70;4.70;;;19.30;97.20;;;;;;1662529;29;20290;-69
2022/10/30 08:30:27;;;;;;;8.43;4.55;;;19.30;97.20;;;;;;1662402;29;20207;-69
2022/10/30 08:31:18;;;;;;;12.07;5.25;;;19.40;97.20;;;;;;1652763;29;20590;-69
2022/10/30 08:32:10;;;;;;;13.87;5.47;;;19.40;97.20;;;;;;1650064;29;20209;-69
2022/10/30 08:33:02;;;;;;;12.15;5.13;;;19.40;97.20;;;;;;1649869;29;20232;-71
2022/10/30 08:33:54;;;;;;;10.18;5.53;;;19.40;97.20;;;;;;1650038;29;20212;-69
2022/10/30 08:34:45;;;;;;;7.00;4.82;;;19.50;97.20;;;;;;1650090;29;20239;-69
2022/10/30 08:35:38;;;;;;;11.10;4.60;;;19.50;97.20;;;;;;1649941;29;20201;-68
2022/10/30 08:36:28;;;;;;;11.02;5.85;;;19.60;97.20;;;;;;1649710;29;20209;-69
2022/10/30 08:37:20;;;;;;;8.27;5.70;;;19.60;97.20;;;;;;1649898;29;20296;-69
2022/10/30 08:38:11;;;;;;;11.65;4.80;;;19.70;97.20;;;;;;1649997;29;20223;-69
2022/10/30 08:39:03;;;;;;;8.57;4.90;;;19.70;97.20;;;;;;1649994;29;20215;-69
2022/10/30 08:39:54;;;;;;;8.15;4.68;;;19.80;97.20;;;;;;1650019;29;20285;-69
2022/10/30 08:40:46;;;;;;;11.23;4.50;;;19.90;97.20;;;;;;1649734;29;20297;-69
2022/10/30 08:41:36;;;;;;;8.60;5.00;;;19.90;97.20;;;;;;1649629;30;20208;-69
2022/10/30 08:42:28;;;;;;;8.90;5.13;;;19.90;97.20;;;;;;1649651;29;20205;-68
2022/10/30 08:43:19;;;;;;;10.45;5.05;;;20.00;97.20;;;;;;1649981;29;20207;-69
2022/10/30 08:44:11;;;;;;;12.90;5.70;;;20.10;97.20;;;;;;1649673;29;20208;-69
2022/10/30 08:45:02;;;;;;;11.90;4.70;;;20.20;97.20;;;;;;1649959;29;20209;-69
2022/10/30 08:45:53;;;;;;;6.80;4.87;;;20.30;97.20;;;;;;1649922;29;20219;-69
2022/10/30 08:46:44;;;;;;;7.95;5.07;;;20.40;97.20;;;;;;1649584;29;20450;-69
2022/10/30 08:47:36;;;;;;;11.00;5.53;;;20.50;97.20;;;;;;1649550;29;20213;-69
2022/10/30 08:48:27;;;;;;;9.90;5.30;;;20.60;97.20;;;;;;1649820;29;20216;-69
2022/10/30 08:49:18;;;;;;;10.23;5.00;;;20.80;97.20;;;;;;1649982;29;20323;-69
2022/10/30 08:50:09;;;;;;;8.82;5.88;;;20.90;97.20;;;;;;1649956;29;20811;-69
2022/10/30 08:51:02;;;;;;;10.47;6.17;;;21.00;97.20;;;;;;1649800;29;20713;-69
2022/10/30 08:51:53;;;;;;;11.60;6.78;;;21.10;97.20;;;;;;1649849;29;20454;-68
2022/10/30 08:52:45;;;;;;;7.53;5.40;;;21.20;97.20;;;;;;1649900;29;20215;-69
2022/10/30 08:53:35;;;;;;;8.35;5.30;;;21.20;97.20;;;;;;1649789;29;20244;-69
2022/10/30 08:54:27;;;;;;;9.30;5.93;;;21.40;97.20;;;;;;1649888;29;20212;-69
2022/10/30 08:55:18;;;;;;;11.52;5.57;;;21.50;97.20;;;;;;1649899;29;20268;-69
2022/10/30 08:56:10;;;;;;;8.17;5.67;;;21.60;97.20;;;;;;1649560;29;20271;-68
2022/10/30 08:57:00;;;;;;;7.60;5.28;;;21.60;97.20;;;;;;1649806;29;20460;-70
2022/10/30 08:57:52;;;;;;;11.13;6.00;;;21.70;97.20;;;;;;1649615;29;20205;-69
2022/10/30 08:58:43;;;;;;;8.55;7.03;;;21.80;97.20;;;;;;1649835;29;20212;-69
2022/10/30 08:59:34;;;;;;;10.17;6.97;;;21.80;97.20;;;;;;1649688;29;20686;-69
2022/10/30 09:00:26;;;;;;;11.00;7.20;;;21.90;97.20;;;;;;1643619;30;20205;-69
2022/10/30 09:01:18;;;;;;;8.60;6.32;;;22.00;97.20;;;;;;1643690;30;20209;-69
2022/10/30 09:02:08;;;;;;;10.23;6.43;;;22.00;97.20;;;;;;1643683;30;20214;-69
2022/10/30 09:03:00;;;;;;;10.77;7.27;;;22.10;97.20;;;;;;1643663;30;20220;-68
2022/10/30 09:03:51;;;;;;;9.95;5.85;;;22.10;97.20;;;;;;1643654;30;20213;-68
2022/10/30 09:04:43;;;;;;;14.03;6.63;;;22.20;97.20;;;;;;1643623;30;20209;-69
2022/10/30 09:05:35;;;;;;;9.88;5.47;;;22.30;97.20;;;;;;1643643;30;20220;-69
2022/10/30 09:06:28;;;;;;;8.70;5.60;;;22.40;97.20;;;;;;1643357;30;20205;-69
2022/10/30 09:07:19;;;;;;;8.82;6.07;;;22.40;97.20;;;;;;1643556;30;20213;-70
2022/10/30 09:08:10;;;;;;;9.30;6.13;;;22.50;97.20;;;;;;1643635;30;20205;-71
2022/10/30 09:09:01;;;;;;;8.70;5.53;;;22.60;97.20;;;;;;1643592;30;20224;-68
2022/10/30 09:09:53;;;;;;;9.77;6.83;;;22.60;97.20;;;;;;1643636;30;20664;-69
2022/10/30 09:10:43;;;;;;;9.35;6.32;;;22.60;97.20;;;;;;1649402;30;20243;-69
2022/10/30 09:11:35;;;;;;;8.20;5.57;;;22.70;97.20;;;;;;1649865;29;20212;-69
2022/10/30 09:12:26;;;;;;;9.75;5.65;;;22.80;97.20;;;;;;1649740;29;20216;-69
2022/10/30 09:13:18;;;;;;;12.73;6.03;;;22.80;97.20;;;;;;1649750;29;20239;-69
2022/10/30 09:14:09;;;;;;;10.60;5.63;;;22.90;97.20;;;;;;1649790;29;20949;-69
2022/10/30 09:15:00;;;;;;;12.23;5.87;;;22.90;97.20;;;;;;1649836;29;20573;-69
2022/10/30 09:15:51;;;;;;;10.93;6.10;;;22.90;97.20;;;;;;1649843;29;20538;-69
2022/10/30 09:16:43;;;;;;;12.03;6.03;;;23.00;97.20;;;;;;1649538;29;20304;-69
2022/10/30 09:17:33;;;;;;;9.90;5.50;;;23.00;97.20;;;;;;1649692;29;20209;-69
2022/10/30 09:18:25;;;;;;;12.53;5.90;;;23.10;97.20;;;;;;1649775;29;20208;-69
2022/10/30 09:19:16;;;;;;;10.02;6.13;;;23.10;97.20;;;;;;1649859;29;20209;-69
2022/10/30 09:20:09;;;;;;;8.63;6.10;;;23.10;97.20;;;;;;1649782;29;20668;-69
2022/10/30 09:20:59;;;;;;;8.95;6.00;;;23.20;97.20;;;;;;1649771;29;20235;-69
2022/10/30 09:21:52;;;;;;;9.60;5.40;;;23.20;97.20;;;;;;1649785;29;20215;-69
2022/10/30 09:22:43;;;;;;;7.43;5.75;;;23.30;97.20;;;;;;1649763;29;20208;-69
2022/10/30 09:23:35;;;;;;;9.37;5.87;;;23.40;97.20;;;;;;1649858;29;20211;-69
2022/10/30 09:24:26;;;;;;;11.38;5.53;;;23.50;97.20;;;;;;1649564;29;20395;-69
2022/10/30 09:25:18;;;;;;;10.90;6.13;;;23.50;97.20;;;;;;1649869;29;20209;-71
2022/10/30 09:26:09;;;;;;;10.88;5.20;;;23.60;97.20;;;;;;1649480;29;20453;-71
2022/10/30 09:27:00;;;;;;;10.93;5.63;;;23.70;97.20;;;;;;1649774;29;20213;-71
2022/10/30 09:27:51;;;;;;;8.73;5.43;;;23.70;97.20;;;;;;1649673;29;20216;-71
2022/10/30 09:28:43;;;;;;;8.23;5.30;;;23.80;97.20;;;;;;1649828;29;20201;-71
2022/10/30 09:29:34;;;;;;;13.80;5.68;;;23.80;97.20;;;;;;1649784;29;20212;-71
2022/10/30 09:30:26;;;;;;;10.68;4.80;;;23.90;97.20;;;;;;1649729;29;20295;-71
2022/10/30 09:31:17;;;;;;;12.32;6.15;;;23.90;97.20;;;;;;1655504;29;20236;-71
2022/10/30 09:32:10;;;;;;;10.90;5.20;;;24.00;97.20;;;;;;1657244;29;20208;-72
2022/10/30 09:33:01;;;;;;;8.82;5.80;;;24.00;97.20;;;;;;1657318;29;20588;-71
2022/10/30 09:33:53;;;;;;;7.10;5.00;;;24.10;97.20;;;;;;1657139;29;20231;-71
2022/10/30 09:34:44;;;;;;;8.80;4.93;;;24.20;97.20;;;;;;1657129;29;20203;-68
2022/10/30 09:35:35;;;;;;;9.40;5.53;;;24.20;97.20;;;;;;1657253;29;20207;-69
2022/10/30 09:36:26;;;;;;;9.07;5.65;;;24.30;97.20;;;;;;1656836;29;20453;-69
2022/10/30 09:37:19;;;;;;;8.67;5.07;;;24.40;97.20;;;;;;1657192;29;20222;-69
2022/10/30 09:38:10;;;;;;;10.63;5.97;;;24.50;97.20;;;;;;1657138;29;20222;-70
2022/10/30 09:39:02;;;;;;;10.90;5.73;;;24.50;97.20;;;;;;1657216;29;20214;-69
2022/10/30 09:39:53;;;;;;;5.53;4.65;;;24.60;97.20;;;;;;1657156;29;20457;-71
2022/10/30 09:41:01;;;;;;;9.70;5.23;;;24.70;97.20;;;;;;1657072;29;20227;-71
2022/10/30 09:42:05;;;;;;;9.13;4.80;;;24.80;97.20;;;;;;1657042;29;20461;-69
2022/10/30 09:43:03;;;;;;;14.20;5.25;;;25.00;97.20;;;;;;1657259;29;20212;-69
2022/10/30 09:44:08;;;;;;;9.30;4.82;;;25.10;97.20;;;;;;1657214;29;20643;-69
2022/10/30 09:45:17;;;;;;;9.43;4.75;;;25.30;97.20;;;;;;1657181;29;20196;-69
2022/10/30 09:46:19;;;;;;;8.05;4.82;;;25.40;97.20;;;;;;1656857;29;20220;-69
2022/10/30 09:47:22;;;;;;;9.40;5.15;;;25.50;97.20;;;;;;1657166;29;20218;-69
2022/10/30 09:48:41;;;;;;;8.10;4.45;;;25.60;97.20;;;;;;1657110;29;20567;-69
2022/10/30 09:49:56;;;;;;;8.30;4.65;;;25.80;97.20;;;;;;1657140;29;20208;-70
2022/10/30 09:50:56;;;;;;;11.00;4.47;;;25.90;97.20;;;;;;1656966;29;20231;-70
2022/10/30 09:52:13;;;;;;;8.73;4.95;;;26.00;97.20;;;;;;1657094;29;20208;-69
2022/10/30 09:53:14;;;;;;;11.10;4.70;;;26.10;97.20;;;;;;1657141;29;20277;-70
2022/10/30 09:54:15;;;;;;;8.73;4.60;;;26.20;97.20;;;;;;1657088;29;20705;-70
2022/10/30 09:55:28;;;;;;;11.02;5.07;;;26.20;97.20;;;;;;1657129;29;20241;-70
2022/10/30 09:56:26;;;;;;;5.32;4.28;;;26.40;97.20;;;;;;1656848;29;20264;-69
2022/10/30 09:57:21;;;;;;;7.53;4.28;;;26.50;97.20;;;;;;1657117;29;20218;-70
2022/10/30 09:58:23;;;;;;;5.13;4.07;;;26.50;97.20;;;;;;1656619;29;20204;-70
2022/10/30 09:59:27;;;;;;;7.55;4.20;;;26.60;97.20;;;;;;1657155;29;20212;-70
2022/10/30 10:00:22;;;;;;;8.70;4.53;;;26.70;97.20;;;;;;1657050;29;20208;-69
2022/10/30 10:01:21;;;;;;;6.18;4.35;;;26.80;97.20;;;;;;1657056;29;20238;-69
2022/10/30 10:02:30;;;;;;;7.40;4.28;;;26.90;97.20;;;;;;1657125;29;20245;-70
2022/10/30 10:03:33;;;;;;;6.13;3.83;;;27.10;97.20;;;;;;1657076;29;20680;-69
2022/10/30 10:04:28;;;;;;;6.88;4.15;;;27.20;97.20;;;;;;1657023;29;20204;-69
2022/10/30 10:05:24;;;;;;;9.20;4.50;;;27.40;97.20;;;;;;1656991;29;20212;-70
2022/10/30 10:06:18;;;;;;;7.75;3.75;;;27.50;97.20;;;;;;1656856;29;20212;-70
2022/10/30 10:07:16;;;;;;;10.00;3.75;;;27.60;97.20;;;;;;1656903;29;20208;-70
2022/10/30 10:08:15;;;;;;;5.35;2.92;;;27.70;97.20;;;;;;1656985;29;20220;-70
2022/10/30 10:09:13;;;;;;;5.77;3.60;;;27.80;97.20;;;;;;1656977;29;20220;-69
2022/10/30 10:10:11;;;;;;;5.28;2.97;;;27.90;97.20;;;;;;1656978;29;20489;-69
2022/10/30 10:11:07;;;;;;;6.45;3.35;;;28.00;97.20;;;;;;1657041;29;20212;-70
2022/10/30 10:12:04;;;;;;;6.45;3.00;;;28.10;97.20;;;;;;1657145;29;20208;-69
2022/10/30 10:12:56;;;;;;;9.27;3.45;;;28.20;97.20;;;;;;1657046;29;20211;-70
2022/10/30 10:13:53;;;;;;;4.28;2.92;;;28.20;97.20;;;;;;1656692;29;20652;-70
2022/10/30 10:14:46;;;;;;;7.30;3.37;;;28.30;97.20;;;;;;1656736;29;20211;-69
2022/10/30 10:15:42;;;;;;;6.20;3.20;;;28.40;97.20;;;;;;1656982;29;20456;-70
2022/10/30 10:16:37;;;;;;;7.55;3.28;;;28.50;97.20;;;;;;1656402;29;20582;-70
2022/10/30 10:17:34;;;;;;;4.38;2.67;;;28.60;97.20;;;;;;1656840;29;20208;-69
2022/10/30 10:18:31;;;;;;;8.65;2.70;;;28.70;97.20;;;;;;1657022;29;20609;-70
2022/10/30 10:19:30;;;;;;;5.90;3.13;;;28.70;97.20;;;;;;1657049;29;20723;-69
2022/10/30 10:20:29;;;;;;;7.05;2.80;;;28.80;97.20;;;;;;1656876;29;20475;-70
2022/10/30 10:21:24;;;;;;;5.18;2.90;;;28.90;97.20;;;;;;1657022;29;20216;-70
2022/10/30 10:22:20;;;;;;;5.72;2.85;;;29.00;97.20;;;;;;1656948;29;20212;-70
2022/10/30 10:23:18;;;;;;;6.90;2.40;;;29.10;97.20;;;;;;1657010;29;20734;-70
2022/10/30 10:24:14;;;;;;;7.07;2.88;;;29.20;97.20;;;;;;1656909;29;20453;-70
2022/10/30 10:25:11;;;;;;;8.23;3.30;;;29.30;97.20;;;;;;1656972;29;20346;-70
2022/10/30 10:26:11;;;;;;;5.33;3.00;;;29.40;97.20;;;;;;1656953;29;20216;-70
2022/10/30 10:27:14;;;;;;;8.20;2.87;;;29.50;97.20;;;;;;1656888;29;20525;-70
2022/10/30 10:28:15;;;;;;;6.27;2.80;;;29.60;97.20;;;;;;1656866;29;20468;-70
2022/10/30 10:29:37;;;;;;;5.63;2.73;;;29.70;97.20;;;;;;1656938;29;20464;-70
2022/10/30 10:30:38;;;;;;;6.03;3.17;;;29.70;97.20;;;;;;1656463;29;20469;-70
2022/10/30 10:31:42;;;;;;;7.15;3.05;;;29.70;97.20;;;;;;1656485;29;20465;-70
2022/10/30 10:33:06;;;;;;;5.60;2.97;;;29.80;97.20;;;;;;1657007;29;20627;-70
2022/10/30 10:34:14;;;;;;;4.90;3.17;;;29.80;97.20;;;;;;1656855;29;20485;-70
2022/10/30 10:35:23;;;;;;;4.80;2.73;;;29.90;97.20;;;;;;1656837;29;20461;-70
2022/10/30 10:36:26;;;;;;;5.07;3.37;;;30.00;97.20;;;;;;1656645;29;20464;-70